Vandalia, Ohio
Current Conditions -  °F | °C
As of 3:56 AM on Wednesday 22 Oct 2014 (Local Time) from KDAY Reporting Station
Overcast Overcast  
Wind Chill: 40°   Ceiling: 1500
Heat Index: 45°   Visibility: 10mi
Dew Point: 39°   Wind: 9mph
Humidity: 80%   Direction: 10°N
Pressure: 30.22"   Gusts: NA
Location:  39.89°N, 84.19°W
Report Text: KDAY 220756Z 01008KT 10SM OVC015 07/04 A3022 RMK AO2 SLP235 T00720039
Loading
Personal Weather Stations






























Interactive Weather Map
Tropical Storm Tracking
New forecast layout! Learn more

10-Day Weather Forecast

Advertisements
Track Severe Weather on mobile